Welcome!

Visit our other weather sites:

Template documentation
and downloads

And another site



There are no active watches, warnings or advisories

Nearby METAR Reports

   
KAVP - Albrightsville, PA
Updated: Jul 13 2020 8:54 pm
Clear  
Clear  
   Wind: varies 3.5 mph
Wind: varies 3.5 mph
Temperature: 73.4°F
Dew Point: 59°F
Humidity: 61%
Barometer: 29.92 inHg
Clouds: Clear
Visibility: 10 mi
Cloud details: Clear
KAVP 140154Z VRB03KT 10SM CLR 23/15 A2992 RMK AO2 SLP123 T02330150 PNO $
KIWA - Apache Junction, AZ
Updated: Jul 13 2020 7:50 pm
NOT Current
Thunderstorm  
Thunderstorm  
   Wind: WSW 5.8 mph
Wind: WSW 5.8 mph
Clouds: Thunderstorm
Visibility: 10 mi
Cloud details: Thunderstorm
KIWA 140050Z 24005KT 10SM TCU DSNT N-E BKN200 42/12 A2976
KPKB - Blue Rock, OH
Updated: Jul 13 2020 8:53 pm
Few Clouds  
Few Clouds  
   Wind: NNE 3.5 mph
Wind: NNE 3.5 mph
Temperature: 75.2°F
Dew Point: 62.6°F
Humidity: 65%
Barometer: 29.97 inHg
Clouds: Few Clouds
Visibility: 10 mi
Cloud details: Few Clouds 1676 m
KPKB 140153Z 02003KT 10SM FEW055 24/17 A2997 RMK AO2 SLP140 T02390167
KHVN - Branford, CT
Updated: Jul 13 2020 8:53 pm
Clear  
Clear  
   Wind: Calm
Wind: Calm
Temperature: 78.8°F
Dew Point: 66.2°F
Humidity: 65%
Barometer: 29.82 inHg
Clouds: Clear
Visibility: 10 mi
Cloud details: Clear
KHVN 140153Z 00000KT 10SM CLR 26/19 A2982 RMK AO2 SLP099 T02560189
KPHX - Carefree, AZ
Updated: Jul 13 2020 8:51 pm
Partly Cloudy  
Partly Cloudy  
   Wind: WSW 11.5 mph
Wind: WSW 11.5 mph
Temperature: 109.4°F
Dew Point: 48.2°F
Humidity: 13%
Barometer: 29.7 inHg
Clouds: Partly Cloudy
Visibility: 10 mi
Cloud details: Few Clouds 3048 m,
Few Clouds 4572 m,
Partly Cloudy 7620 m
KPHX 140151Z 25010KT 10SM FEW100 FEW150 SCT250 43/09 A2970 RMK AO2 SLP034 T04280094
 

Script developed by  Saratoga-weather.org Adapted for the template by  Weerstation Leuven